createdAt,value
2022-11-26T00:02:26.083Z,100213.69
2022-11-26T00:04:55.460Z,100215.91
2022-11-26T00:07:27.066Z,100214.72
2022-11-26T00:09:55.625Z,100220.78
2022-11-26T00:12:24.833Z,100238.94
2022-11-26T00:14:53.265Z,100226.66
2022-11-26T00:17:22.349Z,100234.22
2022-11-26T00:19:50.487Z,100229.19
2022-11-26T00:22:24.953Z,100237.72
2022-11-26T00:24:54.844Z,100249.13
2022-11-26T00:27:24.281Z,100241.28
2022-11-26T00:29:52.451Z,100244.72
2022-11-26T00:32:22.054Z,100239.88
2022-11-26T00:34:50.147Z,100239.84
2022-11-26T00:37:20.909Z,100249.50
2022-11-26T00:39:49.237Z,100247.16
2022-11-26T00:42:18.940Z,100244.38
2022-11-26T00:44:47.099Z,100252.22
2022-11-26T00:47:15.161Z,100246.38
2022-11-26T00:49:43.263Z,100253.34
2022-11-26T00:52:23.989Z,100252.25
2022-11-26T00:54:52.071Z,100261.31
2022-11-26T00:57:21.479Z,100252.00
2022-11-26T00:59:49.552Z,100256.28
2022-11-26T01:02:17.788Z,100257.44
2022-11-26T01:04:45.980Z,100261.28
2022-11-26T01:07:14.029Z,100265.19
2022-11-26T01:09:48.843Z,100266.03
2022-11-26T01:12:16.847Z,100275.00
2022-11-26T01:14:46.205Z,100265.31
2022-11-26T01:17:14.413Z,100268.59
2022-11-26T01:19:42.854Z,100267.03
2022-11-26T01:22:21.146Z,100270.72
2022-11-26T01:24:49.798Z,100268.28
2022-11-26T01:27:18.971Z,100284.69
2022-11-26T01:29:48.496Z,100288.38
2022-11-26T01:32:16.708Z,100282.44
2022-11-26T01:34:44.809Z,100286.06
2022-11-26T01:37:14.338Z,100290.94
2022-11-26T01:39:42.577Z,100299.72
2022-11-26T01:42:22.315Z,100299.00
2022-11-26T01:44:51.695Z,100309.84
2022-11-26T01:47:22.528Z,100318.78
2022-11-26T01:50:33.113Z,100326.19
2022-11-26T01:53:02.945Z,100329.16
2022-11-26T01:55:36.361Z,100324.19
2022-11-26T01:58:05.246Z,100337.47
2022-11-26T02:00:34.752Z,100326.22
2022-11-26T02:03:03.101Z,100341.81
2022-11-26T02:05:36.081Z,100345.31
2022-11-26T02:08:04.204Z,100349.13
2022-11-26T02:10:32.296Z,100338.84
2022-11-26T02:13:00.328Z,100347.66
2022-11-26T02:15:31.323Z,100343.41
2022-11-26T02:18:03.426Z,100340.00
2022-11-26T02:20:42.723Z,100349.03
2022-11-26T02:23:42.485Z,100336.81
2022-11-26T02:26:48.836Z,100341.25
2022-11-26T02:29:23.267Z,100340.94
2022-11-26T02:31:57.793Z,100343.41
2022-11-26T02:34:35.810Z,100344.25
2022-11-26T02:37:08.688Z,100337.25
2022-11-26T02:39:36.773Z,100335.78
2022-11-26T02:42:05.099Z,100337.78
2022-11-26T02:44:38.518Z,100340.44
2022-11-26T02:47:11.891Z,100348.53
2022-11-26T02:49:41.547Z,100356.38
2022-11-26T02:52:11.037Z,100341.09
2022-11-26T02:54:39.833Z,100345.97
2022-11-26T02:57:12.857Z,100348.53
2022-11-26T02:59:41.187Z,100354.88
2022-11-26T03:02:12.862Z,100361.13
2022-11-26T03:04:43.309Z,100362.00
2022-11-26T03:07:13.093Z,100361.78
2022-11-26T03:09:42.499Z,100366.78
2022-11-26T03:12:10.559Z,100366.34
2022-11-26T03:14:38.882Z,100361.56
2022-11-26T03:17:07.030Z,100362.84
2022-11-26T03:19:36.503Z,100357.53
2022-11-26T03:22:04.963Z,100360.97
2022-11-26T03:24:33.299Z,100364.69
2022-11-26T03:27:01.376Z,100366.16
2022-11-26T03:29:29.599Z,100358.09
2022-11-26T03:31:57.911Z,100369.03
2022-11-26T03:34:26.124Z,100366.06
2022-11-26T03:36:55.605Z,100368.81
2022-11-26T03:39:23.670Z,100375.41
2022-11-26T03:41:51.779Z,100372.13
2022-11-26T03:44:19.804Z,100368.72
2022-11-26T03:46:47.888Z,100381.78
2022-11-26T03:49:15.918Z,100373.72
2022-11-26T03:51:43.945Z,100384.03
2022-11-26T03:54:13.334Z,100383.63
2022-11-26T03:56:41.757Z,100384.56
2022-11-26T03:59:09.763Z,100390.28
2022-11-26T04:01:39.736Z,100388.69
2022-11-26T04:04:07.871Z,100390.25
2022-11-26T04:06:36.248Z,100394.53
2022-11-26T04:09:04.444Z,100400.81
2022-11-26T04:11:34.063Z,100404.53
2022-11-26T04:14:02.174Z,100396.97
2022-11-26T04:16:30.277Z,100406.44
2022-11-26T04:18:59.195Z,100402.59
2022-11-26T04:21:27.208Z,100411.44
2022-11-26T04:23:55.267Z,100405.81
2022-11-26T04:26:23.274Z,100427.69
2022-11-26T04:28:52.701Z,100420.47
2022-11-26T04:31:21.091Z,100409.94
2022-11-26T04:33:49.143Z,100419.28
2022-11-26T04:36:17.193Z,100410.66
2022-11-26T04:38:45.164Z,100419.81
2022-11-26T04:41:13.197Z,100423.22
2022-11-26T04:43:41.222Z,100429.28
2022-11-26T04:46:10.702Z,100426.63
2022-11-26T04:48:38.823Z,100436.13
2022-11-26T04:51:07.231Z,100440.56
2022-11-26T04:53:35.622Z,100432.47
2022-11-26T04:56:03.891Z,100446.78
2022-11-26T04:58:31.940Z,100443.22
2022-11-26T05:01:00.099Z,100440.13
2022-11-26T05:03:29.945Z,100434.53
2022-11-26T05:05:57.969Z,100435.75
2022-11-26T05:08:25.961Z,100434.38
2022-11-26T05:10:55.291Z,100448.38
2022-11-26T05:13:23.330Z,100445.75
2022-11-26T05:15:51.414Z,100453.50
2022-11-26T05:18:19.431Z,100454.56
2022-11-26T05:20:49.066Z,100459.78
2022-11-26T05:23:17.076Z,100450.28
2022-11-26T05:25:45.099Z,100439.78
2022-11-26T05:28:13.200Z,100453.59
2022-11-26T05:30:41.264Z,100452.66
2022-11-26T05:33:09.434Z,100451.00
2022-11-26T05:35:38.991Z,100461.06
2022-11-26T05:38:08.390Z,100467.06
2022-11-26T05:40:36.391Z,100459.47
2022-11-26T05:43:04.402Z,100467.16
2022-11-26T05:45:32.472Z,100473.75
2022-11-26T05:48:00.579Z,100471.00
2022-11-26T05:50:28.609Z,100482.56
2022-11-26T05:52:56.737Z,100481.84
2022-11-26T05:55:26.190Z,100482.88
2022-11-26T05:57:54.408Z,100493.03
2022-11-26T06:00:22.733Z,100502.56
2022-11-26T06:02:51.256Z,100497.03
2022-11-26T06:05:19.505Z,100509.72
2022-11-26T06:07:47.675Z,100509.16
2022-11-26T06:10:16.191Z,100509.59
2022-11-26T06:12:45.584Z,100510.47
2022-11-26T06:15:13.611Z,100504.50
2022-11-26T06:17:41.687Z,100505.63
2022-11-26T06:20:10.438Z,100516.94
2022-11-26T06:22:39.276Z,100527.44
2022-11-26T06:25:09.163Z,100518.75
2022-11-26T06:27:38.181Z,100530.13
2022-11-26T06:30:09.861Z,100513.00
2022-11-26T06:32:38.307Z,100519.38
2022-11-26T06:35:09.106Z,100540.13
2022-11-26T06:37:39.341Z,100532.00
2022-11-26T06:40:09.132Z,100534.16
2022-11-26T06:42:37.197Z,100550.72
2022-11-26T06:45:07.454Z,100546.50
2022-11-26T06:47:35.491Z,100547.25
2022-11-26T06:50:09.308Z,100554.38
2022-11-26T06:52:38.667Z,100554.59
2022-11-26T06:55:07.281Z,100553.16
2022-11-26T06:57:35.407Z,100566.16
2022-11-26T07:00:03.590Z,100562.88
2022-11-26T07:02:33.298Z,100559.91
2022-11-26T07:05:01.461Z,100568.19
2022-11-26T07:07:29.660Z,100570.13
2022-11-26T07:09:57.714Z,100578.09
2022-11-26T07:12:25.791Z,100584.81
2022-11-26T07:14:53.787Z,100583.06
2022-11-26T07:17:21.832Z,100586.72
2022-11-26T07:19:51.870Z,100588.53
2022-11-26T07:22:19.887Z,100593.31
2022-11-26T07:24:48.046Z,100602.38
2022-11-26T07:27:18.289Z,100602.25
2022-11-26T07:29:59.229Z,100609.59
2022-11-26T07:32:35.904Z,100607.81
2022-11-26T07:35:14.924Z,100615.44
2022-11-26T07:37:48.661Z,100607.91
2022-11-26T07:40:28.645Z,100624.81
2022-11-26T07:42:58.204Z,100624.47
2022-11-26T07:45:32.830Z,100616.31
2022-11-26T07:48:04.608Z,100629.50
2022-11-26T07:50:36.684Z,100622.22
2022-11-26T07:53:07.747Z,100615.13
2022-11-26T07:55:39.516Z,100627.75
2022-11-26T07:58:12.805Z,100617.69
2022-11-26T08:00:43.783Z,100635.75
2022-11-26T08:03:25.713Z,100634.81
2022-11-26T08:06:02.984Z,100640.09
2022-11-26T08:08:31.742Z,100643.53
2022-11-26T08:11:00.076Z,100638.50
2022-11-26T08:13:30.802Z,100646.88
2022-11-26T08:16:01.755Z,100645.34
2022-11-26T08:18:34.318Z,100645.66
2022-11-26T08:21:13.871Z,100650.41
2022-11-26T08:23:51.323Z,100644.69
2022-11-26T08:26:27.394Z,100640.84
2022-11-26T08:29:01.944Z,100641.06
2022-11-26T08:31:37.940Z,100645.75
2022-11-26T08:34:16.087Z,100634.72
2022-11-26T08:37:06.640Z,100648.00
2022-11-26T08:39:43.231Z,100647.47
2022-11-26T08:42:15.775Z,100644.78
2022-11-26T08:44:52.243Z,100647.16
2022-11-26T08:47:26.539Z,100652.16
2022-11-26T08:49:57.777Z,100651.53
2022-11-26T08:52:37.133Z,100647.09
2022-11-26T08:55:15.635Z,100649.44
2022-11-26T08:57:49.725Z,100657.84
2022-11-26T09:00:20.247Z,100662.53
2022-11-26T09:02:50.798Z,100668.16
2022-11-26T09:05:22.134Z,100664.56
2022-11-26T09:07:54.145Z,100672.97
2022-11-26T09:10:27.305Z,100679.06
2022-11-26T09:12:55.920Z,100676.69
2022-11-26T09:15:25.792Z,100679.66
2022-11-26T09:17:55.622Z,100691.28
2022-11-26T09:20:27.417Z,100690.09
2022-11-26T09:23:04.075Z,100690.00
2022-11-26T09:25:32.552Z,100684.13
2022-11-26T09:28:10.195Z,100685.09
2022-11-26T09:30:40.562Z,100687.41
2022-11-26T09:33:13.507Z,100687.63
2022-11-26T09:35:49.848Z,100696.25
2022-11-26T09:38:30.412Z,100681.56
2022-11-26T09:41:08.661Z,100696.38
2022-11-26T09:43:51.912Z,100690.41
2022-11-26T09:46:25.782Z,100688.06
2022-11-26T09:48:55.407Z,100690.41
2022-11-26T09:51:23.521Z,100688.91
2022-11-26T09:53:53.179Z,100694.16
2022-11-26T09:56:23.062Z,100696.63
2022-11-26T09:58:56.844Z,100692.34
2022-11-26T10:01:25.773Z,100687.03
2022-11-26T10:03:53.852Z,100704.06
2022-11-26T10:06:35.232Z,100688.81
2022-11-26T10:09:17.635Z,100697.03
2022-11-26T10:11:51.525Z,100697.22
2022-11-26T10:14:33.865Z,100695.56
2022-11-26T10:17:13.641Z,100704.28
2022-11-26T10:19:47.566Z,100705.84
2022-11-26T10:22:21.870Z,100701.59
2022-11-26T10:24:51.717Z,100697.97
2022-11-26T10:27:21.289Z,100698.44
2022-11-26T10:29:52.202Z,100699.34
2022-11-26T10:32:25.537Z,100688.13
2022-11-26T10:34:54.558Z,100683.47
2022-11-26T10:37:24.419Z,100687.25
2022-11-26T10:40:02.042Z,100689.81
2022-11-26T10:42:42.294Z,100691.78
2022-11-26T10:45:19.396Z,100689.00
2022-11-26T10:47:47.452Z,100692.81
2022-11-26T10:53:21.221Z,100693.97
2022-11-26T10:55:52.189Z,100692.81
2022-11-26T10:58:22.346Z,100698.22
2022-11-26T11:00:56.775Z,100687.22
2022-11-26T11:03:51.884Z,100686.22
2022-11-26T11:06:28.396Z,100696.88
2022-11-26T11:08:56.476Z,100700.34
2022-11-26T11:11:27.318Z,100705.03
2022-11-26T11:13:56.364Z,100703.78
2022-11-26T11:16:28.048Z,100696.09
2022-11-26T11:18:58.038Z,100695.50
2022-11-26T11:21:30.766Z,100692.00
2022-11-26T11:24:09.435Z,100701.19
2022-11-26T11:26:44.507Z,100700.34
2022-11-26T11:29:27.818Z,100698.41
2022-11-26T11:31:56.687Z,100697.78
2022-11-26T11:34:28.705Z,100687.03
2022-11-26T11:37:01.218Z,100694.88
2022-11-26T11:39:31.538Z,100693.69
2022-11-26T11:42:02.295Z,100697.66
2022-11-26T11:44:39.597Z,100705.34
2022-11-26T11:47:29.871Z,100704.94
2022-11-26T11:50:09.133Z,100705.69
2022-11-26T11:52:43.193Z,100702.94
2022-11-26T11:55:19.944Z,100720.31
2022-11-26T11:58:09.294Z,100716.00
2022-11-26T12:00:42.307Z,100714.41
2022-11-26T12:03:42.831Z,100711.03
2022-11-26T12:06:20.388Z,100712.84
2022-11-26T12:08:57.770Z,100707.19
2022-11-26T12:11:33.008Z,100716.59
2022-11-26T12:14:05.119Z,100718.88
2022-11-26T12:16:36.524Z,100726.78
2022-11-26T12:19:08.161Z,100719.56
2022-11-26T12:21:38.860Z,100733.09
2022-11-26T12:24:10.529Z,100715.81
2022-11-26T12:26:41.598Z,100719.56
2022-11-26T12:29:17.423Z,100707.56
2022-11-26T12:31:47.860Z,100713.25
2022-11-26T12:34:21.352Z,100712.69
2022-11-26T12:36:54.497Z,100713.09
2022-11-26T12:39:31.576Z,100705.56
2022-11-26T12:42:03.812Z,100701.00
2022-11-26T12:44:37.807Z,100723.41
2022-11-26T12:47:11.765Z,100719.69
2022-11-26T12:49:46.458Z,100718.16
2022-11-26T12:52:27.559Z,100713.06
2022-11-26T12:55:00.176Z,100716.34
2022-11-26T12:57:29.853Z,100710.44
2022-11-26T13:00:01.107Z,100712.66
2022-11-26T13:02:31.946Z,100712.31
2022-11-26T13:05:00.467Z,100710.06
2022-11-26T13:07:47.355Z,100724.72
2022-11-26T13:10:22.557Z,100708.81
2022-11-26T13:12:59.174Z,100707.22
2022-11-26T13:15:34.060Z,100708.38
2022-11-26T13:18:02.768Z,100699.31
2022-11-26T13:20:48.489Z,100698.69
2022-11-26T13:23:29.513Z,100712.09
2022-11-26T13:26:09.007Z,100704.78
2022-11-26T13:28:47.623Z,100707.19
2022-11-26T13:31:28.398Z,100703.69
2022-11-26T13:34:16.976Z,100710.44
2022-11-26T13:37:07.052Z,100708.38
2022-11-26T13:40:10.094Z,100716.50
2022-11-26T13:43:02.126Z,100715.44
2022-11-26T13:45:50.768Z,100723.78
2022-11-26T13:48:23.381Z,100714.13
2022-11-26T13:50:55.352Z,100712.19
2022-11-26T13:53:27.223Z,100725.22
2022-11-26T13:55:58.108Z,100719.09
2022-11-26T13:58:28.764Z,100726.78
2022-11-26T14:00:57.074Z,100724.66
2022-11-26T14:03:47.006Z,100726.34
2022-11-26T14:06:15.894Z,100725.91
2022-11-26T14:08:46.398Z,100725.63
2022-11-26T14:11:34.961Z,100730.00
2022-11-26T14:14:31.823Z,100733.00
2022-11-26T14:17:23.374Z,100734.50
2022-11-26T14:20:08.375Z,100732.56
2022-11-26T14:22:37.278Z,100734.47
2022-11-26T14:25:11.044Z,100739.28
2022-11-26T14:27:43.101Z,100733.63
2022-11-26T14:30:20.315Z,100742.84
2022-11-26T14:32:55.281Z,100740.81
2022-11-26T14:35:33.645Z,100744.47
2022-11-26T14:38:04.511Z,100737.66
2022-11-26T14:40:36.494Z,100748.56
2022-11-26T14:43:09.311Z,100743.53
2022-11-26T14:45:38.155Z,100737.56
2022-11-26T14:48:07.032Z,100737.00
2022-11-26T14:50:38.227Z,100725.34
2022-11-26T14:53:08.323Z,100728.50
2022-11-26T14:55:36.598Z,100739.19
2022-11-26T14:58:09.341Z,100732.91
2022-11-26T15:00:38.328Z,100736.22
2022-11-26T15:03:20.537Z,100736.22
2022-11-26T15:05:50.040Z,100735.59
2022-11-26T15:08:20.379Z,100746.25
2022-11-26T15:10:51.289Z,100739.63
2022-11-26T15:13:27.657Z,100746.75
2022-11-26T15:16:02.307Z,100736.53
2022-11-26T15:18:33.066Z,100747.94
2022-11-26T15:21:16.508Z,100742.63
2022-11-26T15:23:47.736Z,100744.63
2022-11-26T15:26:21.847Z,100746.56
2022-11-26T15:29:01.226Z,100743.69
2022-11-26T15:31:41.752Z,100733.25
2022-11-26T15:34:15.209Z,100745.31
2022-11-26T15:36:44.698Z,100732.72
2022-11-26T15:39:31.655Z,100737.72
2022-11-26T15:42:04.732Z,100742.94
2022-11-26T15:44:44.888Z,100745.50
2022-11-26T15:47:19.756Z,100741.53
2022-11-26T15:49:58.500Z,100755.41
2022-11-26T15:52:51.201Z,100755.72
2022-11-26T15:55:31.751Z,100760.94
2022-11-26T15:58:05.672Z,100765.72
2022-11-26T16:00:42.047Z,100763.94
2022-11-26T16:03:50.804Z,100765.09
2022-11-26T16:06:30.493Z,100768.94
2022-11-26T16:09:07.566Z,100778.09
2022-11-26T16:11:38.279Z,100773.09
2022-11-26T16:14:31.783Z,100788.31
2022-11-26T16:17:08.464Z,100785.44
2022-11-26T16:19:43.699Z,100779.91
2022-11-26T16:22:28.488Z,100779.06
2022-11-26T16:25:31.918Z,100786.41
2022-11-26T16:28:17.151Z,100791.31
2022-11-26T16:30:48.970Z,100788.53
2022-11-26T16:33:21.872Z,100797.34
2022-11-26T16:36:00.405Z,100801.84
2022-11-26T16:38:42.935Z,100786.25
2022-11-26T16:41:18.204Z,100798.25
2022-11-26T16:43:50.594Z,100789.78
2022-11-26T16:46:27.284Z,100798.50
2022-11-26T16:49:10.349Z,100799.41
2022-11-26T16:51:42.568Z,100798.50
2022-11-26T16:54:18.925Z,100801.09
2022-11-26T16:56:59.774Z,100796.06
2022-11-26T16:59:34.103Z,100810.00
2022-11-26T17:02:07.617Z,100799.53
2022-11-26T17:04:39.623Z,100810.66
2022-11-26T17:07:10.280Z,100797.94
2022-11-26T17:09:41.124Z,100799.38
2022-11-26T17:12:40.747Z,100802.13
2022-11-26T17:15:12.393Z,100800.44
2022-11-26T17:17:48.521Z,100801.78
2022-11-26T17:20:32.408Z,100802.03
2022-11-26T17:23:03.831Z,100797.63
2022-11-26T17:25:34.807Z,100815.09
2022-11-26T17:28:13.981Z,100807.78
2022-11-26T17:30:59.302Z,100807.44
2022-11-26T17:33:30.563Z,100804.19
2022-11-26T17:35:59.968Z,100804.19
2022-11-26T17:38:29.592Z,100813.53
2022-11-26T17:40:59.642Z,100813.19
2022-11-26T17:43:32.644Z,100812.16
2022-11-26T17:46:03.683Z,100810.63
2022-11-26T17:48:38.696Z,100824.13
2022-11-26T17:51:20.671Z,100815.59
2022-11-26T17:53:53.987Z,100813.50
2022-11-26T17:56:27.226Z,100815.59
2022-11-26T17:59:12.560Z,100817.19
2022-11-26T18:01:58.630Z,100812.38
2022-11-26T18:04:28.654Z,100817.34
2022-11-26T18:07:05.574Z,100823.13
2022-11-26T18:09:43.437Z,100818.34
2022-11-26T18:12:33.811Z,100815.50
2022-11-26T18:15:06.372Z,100815.41
2022-11-26T18:17:35.064Z,100816.56
2022-11-26T18:20:03.865Z,100814.19
2022-11-26T18:22:33.309Z,100818.72
2022-11-26T18:25:02.079Z,100814.13
2022-11-26T18:27:31.210Z,100831.06
2022-11-26T18:30:00.494Z,100822.41
2022-11-26T18:32:30.998Z,100829.28
2022-11-26T18:35:00.074Z,100819.44
2022-11-26T18:37:28.331Z,100810.13
2022-11-26T18:39:57.314Z,100822.47
2022-11-26T18:42:37.088Z,100825.13
2022-11-26T18:45:08.021Z,100828.56
2022-11-26T18:47:38.656Z,100824.69
2022-11-26T18:50:10.060Z,100830.06
2022-11-26T18:52:39.354Z,100832.63
2022-11-26T18:55:09.975Z,100838.31
2022-11-26T18:57:38.956Z,100841.59
2022-11-26T19:00:11.361Z,100847.31
2022-11-26T19:02:41.726Z,100850.41
2022-11-26T19:05:13.501Z,100848.78
2022-11-26T19:07:43.347Z,100862.59
2022-11-26T19:10:13.560Z,100859.13
2022-11-26T19:12:48.519Z,100868.66
2022-11-26T19:15:18.875Z,100863.56
2022-11-26T19:17:53.300Z,100864.81
2022-11-26T19:20:24.579Z,100871.69
2022-11-26T19:22:53.645Z,100865.84
2022-11-26T19:25:22.608Z,100870.72
2022-11-26T19:27:52.217Z,100874.16
2022-11-26T19:30:21.778Z,100871.75
2022-11-26T19:32:55.279Z,100880.41
2022-11-26T19:35:25.314Z,100874.31
2022-11-26T19:37:54.673Z,100875.84
2022-11-26T19:40:23.778Z,100879.63
2022-11-26T19:42:53.638Z,100876.03
2022-11-26T19:45:22.673Z,100874.78
2022-11-26T19:47:54.980Z,100877.09
2022-11-26T19:50:24.165Z,100880.13
2022-11-26T19:52:53.823Z,100880.03
2022-11-26T19:55:23.122Z,100886.53
2022-11-26T19:57:52.073Z,100884.88
2022-11-26T20:00:23.751Z,100890.28
2022-11-26T20:02:57.515Z,100894.84
2022-11-26T20:05:26.811Z,100893.34
2022-11-26T20:07:56.734Z,100899.59
2022-11-26T20:10:25.850Z,100896.09
2022-11-26T20:12:57.089Z,100899.78
2022-11-26T20:15:26.878Z,100898.53
2022-11-26T20:17:57.610Z,100906.81
2022-11-26T20:20:27.145Z,100901.78
2022-11-26T20:22:57.379Z,100899.69
2022-11-26T20:25:30.199Z,100892.97
2022-11-26T20:28:00.450Z,100901.91
2022-11-26T20:30:30.534Z,100910.06
2022-11-26T20:33:02.671Z,100901.03
2022-11-26T20:35:31.693Z,100899.25
2022-11-26T20:38:03.218Z,100903.78
2022-11-26T20:40:33.549Z,100905.97
2022-11-26T20:43:03.075Z,100901.13
2022-11-26T20:45:32.821Z,100898.94
2022-11-26T20:48:04.608Z,100898.28
2022-11-26T20:50:34.144Z,100905.97
2022-11-26T20:53:04.316Z,100897.63
2022-11-26T20:55:33.387Z,100901.78
2022-11-26T20:58:03.273Z,100903.31
2022-11-26T21:00:32.284Z,100910.81
2022-11-26T21:03:03.657Z,100910.44
2022-11-26T21:05:34.857Z,100905.69
2022-11-26T21:08:04.270Z,100910.44
2022-11-26T21:10:33.554Z,100907.88
2022-11-26T21:13:01.659Z,100902.16
2022-11-26T21:15:31.134Z,100907.66
2022-11-26T21:18:02.320Z,100908.06
2022-11-26T21:20:35.980Z,100914.78
2022-11-26T21:23:04.743Z,100907.47
2022-11-26T21:25:32.829Z,100921.28
2022-11-26T21:28:01.178Z,100903.78
2022-11-26T21:30:29.838Z,100907.75
2022-11-26T21:33:12.518Z,100908.59
2022-11-26T21:35:43.617Z,100911.97
2022-11-26T21:38:26.519Z,100907.84
2022-11-26T21:40:55.483Z,100910.88
2022-11-26T21:43:37.966Z,100915.06
2022-11-26T21:46:16.998Z,100911.28
2022-11-26T21:48:48.465Z,100912.88
2022-11-26T21:51:19.690Z,100912.50
2022-11-26T21:53:50.370Z,100905.13
2022-11-26T21:56:31.392Z,100920.88
2022-11-26T21:59:09.621Z,100909.94
2022-11-26T22:01:50.755Z,100917.47
2022-11-26T22:04:41.035Z,100916.25
2022-11-26T22:07:17.290Z,100915.75
2022-11-26T22:09:56.812Z,100919.19
2022-11-26T22:12:27.759Z,100913.00
2022-11-26T22:14:56.364Z,100912.63
2022-11-26T22:17:30.850Z,100924.09
2022-11-26T22:20:06.575Z,100922.13
2022-11-26T22:22:36.999Z,100927.34
2022-11-26T22:25:10.860Z,100914.41
2022-11-26T22:27:46.642Z,100910.53
2022-11-26T22:30:26.171Z,100906.44
2022-11-26T22:33:02.541Z,100899.09
2022-11-26T22:35:37.334Z,100911.16
2022-11-26T22:38:05.690Z,100896.94
2022-11-26T22:40:35.568Z,100902.94
2022-11-26T22:43:05.962Z,100898.28
2022-11-26T22:45:40.981Z,100898.22
2022-11-26T22:48:18.431Z,100900.72
2022-11-26T22:50:55.692Z,100885.31
2022-11-26T22:53:33.119Z,100898.34
2022-11-26T22:56:07.067Z,100896.09
2022-11-26T22:58:44.519Z,100892.88
2022-11-26T23:01:20.364Z,100894.66
2022-11-26T23:03:57.863Z,100895.84
2022-11-26T23:06:40.919Z,100895.66
2022-11-26T23:09:16.590Z,100886.34
2022-11-26T23:11:52.695Z,100892.53
2022-11-26T23:14:26.086Z,100894.44
2022-11-26T23:16:54.758Z,100897.88
2022-11-26T23:19:23.853Z,100894.66
2022-11-26T23:22:04.553Z,100897.13
2022-11-26T23:24:36.711Z,100893.78
2022-11-26T23:27:06.558Z,100906.38
2022-11-26T23:29:38.481Z,100904.69
2022-11-26T23:32:15.381Z,100902.41
2022-11-26T23:34:55.348Z,100901.34
2022-11-26T23:37:37.226Z,100902.22
2022-11-26T23:40:14.354Z,100897.47
2022-11-26T23:43:00.231Z,100899.84
2022-11-26T23:45:33.706Z,100894.81
2022-11-26T23:48:04.938Z,100906.03
2022-11-26T23:50:35.662Z,100908.03
2022-11-26T23:53:07.964Z,100897.75
2022-11-26T23:55:37.145Z,100902.63
2022-11-26T23:58:16.748Z,100894.34
